createdAt,value
2022-07-29T00:01:51.772Z,100988.46
2022-07-29T00:04:57.353Z,100989.00
2022-07-29T00:08:09.338Z,100996.73
2022-07-29T00:11:15.379Z,100995.77
2022-07-29T00:14:21.852Z,101000.88
2022-07-29T00:17:29.637Z,101002.89
2022-07-29T00:20:34.989Z,101001.09
2022-07-29T00:23:41.765Z,101003.83
2022-07-29T00:26:47.112Z,101000.48
2022-07-29T00:29:54.806Z,100998.89
2022-07-29T00:33:02.297Z,101003.25
2022-07-29T00:36:07.640Z,101004.64
2022-07-29T00:39:15.145Z,100999.28
2022-07-29T00:42:21.798Z,100995.47
2022-07-29T00:45:30.461Z,101001.42
2022-07-29T00:48:35.984Z,101005.23
2022-07-29T00:51:43.710Z,101004.81
2022-07-29T00:54:51.794Z,101006.72
2022-07-29T00:57:58.687Z,101003.81
2022-07-29T01:01:04.798Z,101006.69
2022-07-29T01:04:11.112Z,101006.44
2022-07-29T01:07:20.346Z,101003.56
2022-07-29T01:10:27.260Z,101007.75
2022-07-29T01:13:35.004Z,101009.10
2022-07-29T01:16:45.180Z,101012.83
2022-07-29T01:20:31.923Z,101007.05
2022-07-29T01:23:57.622Z,101013.92
2022-07-29T01:27:15.691Z,101021.31
2022-07-29T01:30:22.351Z,101019.56
2022-07-29T01:33:49.282Z,101017.82
2022-07-29T01:37:12.453Z,101017.25
2022-07-29T01:40:19.329Z,101015.36
2022-07-29T01:43:29.480Z,101020.83
2022-07-29T01:46:54.021Z,101019.53
2022-07-29T01:50:03.010Z,101020.11
2022-07-29T01:53:14.017Z,101017.42
2022-07-29T01:56:21.895Z,101020.59
2022-07-29T01:59:28.403Z,101017.05
2022-07-29T02:02:35.844Z,101011.58
2022-07-29T02:05:42.231Z,101012.70
2022-07-29T02:08:46.842Z,101008.28
2022-07-29T02:11:54.144Z,101006.23
2022-07-29T02:15:06.443Z,101003.98
2022-07-29T02:18:32.389Z,101003.47
2022-07-29T02:21:40.795Z,101015.19
2022-07-29T02:24:48.282Z,101012.80
2022-07-29T02:27:53.623Z,101016.42
2022-07-29T02:31:00.185Z,101020.05
2022-07-29T02:34:11.084Z,101015.04
2022-07-29T02:37:16.442Z,101023.02
2022-07-29T02:40:28.630Z,101024.59
2022-07-29T02:43:34.900Z,101025.31
2022-07-29T02:46:47.026Z,101027.09
2022-07-29T02:50:04.343Z,101029.19
2022-07-29T02:53:26.572Z,101021.96
2022-07-29T02:56:32.955Z,101035.06
2022-07-29T02:59:42.270Z,101036.05
2022-07-29T03:02:50.284Z,101037.66
2022-07-29T03:05:56.545Z,101036.94
2022-07-29T03:09:02.496Z,101033.57
2022-07-29T03:12:09.942Z,101036.45
2022-07-29T03:15:18.514Z,101040.40
2022-07-29T03:18:26.319Z,101036.72
2022-07-29T03:21:32.281Z,101044.21
2022-07-29T03:24:49.603Z,101042.89
2022-07-29T03:27:55.665Z,101045.83
2022-07-29T03:31:01.346Z,101049.63
2022-07-29T03:34:08.726Z,101047.59
2022-07-29T03:37:14.369Z,101051.91
2022-07-29T03:40:23.768Z,101052.93
2022-07-29T03:43:33.787Z,101056.72
2022-07-29T03:46:41.084Z,101057.43
2022-07-29T03:49:51.610Z,101057.27
2022-07-29T03:52:57.463Z,101060.56
2022-07-29T03:56:05.974Z,101058.81
2022-07-29T03:59:13.274Z,101066.40
2022-07-29T04:02:24.463Z,101057.50
2022-07-29T04:05:30.008Z,101057.98
2022-07-29T04:08:38.113Z,101072.62
2022-07-29T04:12:02.072Z,101071.37
2022-07-29T04:14:54.120Z,101061.17
2022-07-29T04:18:05.637Z,101065.36
2022-07-29T04:21:14.563Z,101077.09
2022-07-29T04:24:21.423Z,101073.53
2022-07-29T04:27:29.454Z,101079.41
2022-07-29T04:30:35.508Z,101077.27
2022-07-29T04:33:43.624Z,101074.30
2022-07-29T04:36:49.762Z,101083.92
2022-07-29T04:39:55.046Z,101081.91
2022-07-29T04:43:01.495Z,101083.72
2022-07-29T04:46:09.299Z,101086.51
2022-07-29T04:49:16.682Z,101084.36
2022-07-29T04:52:23.048Z,101077.55
2022-07-29T04:55:33.740Z,101073.17
2022-07-29T04:58:41.306Z,101072.75
2022-07-29T05:01:48.040Z,101076.07
2022-07-29T05:05:00.794Z,101075.52
2022-07-29T05:08:09.028Z,101076.80
2022-07-29T05:11:21.767Z,101077.17
2022-07-29T05:14:26.792Z,101078.45
2022-07-29T05:17:42.291Z,101074.13
2022-07-29T05:20:49.940Z,101073.98
2022-07-29T05:24:00.264Z,101073.73
2022-07-29T05:27:08.285Z,101073.05
2022-07-29T05:30:14.522Z,101076.89
2022-07-29T05:33:35.633Z,101077.88
2022-07-29T05:36:29.860Z,101081.34
2022-07-29T05:39:47.483Z,101079.02
2022-07-29T05:42:49.906Z,101081.64
2022-07-29T05:45:57.912Z,101079.53
2022-07-29T05:49:12.017Z,101081.25
2022-07-29T05:52:23.099Z,101092.25
2022-07-29T05:55:31.718Z,101086.70
2022-07-29T05:58:42.272Z,101088.98
2022-07-29T06:01:49.714Z,101088.36
2022-07-29T06:04:59.209Z,101088.88
2022-07-29T06:08:10.072Z,101097.87
2022-07-29T06:11:20.773Z,101083.64
2022-07-29T06:14:28.027Z,101083.35
2022-07-29T06:17:37.563Z,101086.14
2022-07-29T06:20:50.603Z,101084.20
2022-07-29T06:23:59.375Z,101087.59
2022-07-29T06:27:05.675Z,101082.23
2022-07-29T06:30:19.583Z,101083.32
2022-07-29T06:33:47.807Z,101085.80
2022-07-29T06:37:15.804Z,101082.92
2022-07-29T06:40:44.181Z,101083.38
2022-07-29T06:43:56.873Z,101078.78
2022-07-29T06:47:09.120Z,101082.25
2022-07-29T06:50:23.665Z,101082.26
2022-07-29T06:53:35.161Z,101068.75
2022-07-29T06:56:45.667Z,101067.06
2022-07-29T06:59:55.350Z,101075.63
2022-07-29T07:03:09.819Z,101070.81
2022-07-29T07:06:28.301Z,101074.58
2022-07-29T07:09:40.653Z,101072.22
2022-07-29T07:13:01.204Z,101078.62
2022-07-29T07:16:10.561Z,101081.16
2022-07-29T07:19:40.675Z,101076.13
2022-07-29T07:22:53.463Z,101081.13
2022-07-29T07:26:07.224Z,101082.09
2022-07-29T07:29:16.229Z,101085.06
2022-07-29T07:32:45.536Z,101093.49
2022-07-29T07:35:52.365Z,101084.69
2022-07-29T07:38:58.814Z,101095.33
2022-07-29T07:42:05.261Z,101100.06
2022-07-29T07:45:18.084Z,101095.87
2022-07-29T07:48:37.859Z,101104.87
2022-07-29T07:51:43.990Z,101102.98
2022-07-29T07:54:56.332Z,101092.70
2022-07-29T07:58:03.598Z,101090.82
2022-07-29T08:01:11.934Z,101101.64
2022-07-29T08:04:27.564Z,101095.64
2022-07-29T08:07:33.874Z,101100.98
2022-07-29T08:11:10.056Z,101094.95
2022-07-29T08:14:21.642Z,101099.22
2022-07-29T08:17:31.473Z,101090.38
2022-07-29T08:20:43.966Z,101091.29
2022-07-29T08:24:07.430Z,101102.48
2022-07-29T08:27:40.735Z,101098.65
2022-07-29T08:30:25.888Z,101099.84
2022-07-29T08:33:36.008Z,101098.81
2022-07-29T08:36:46.336Z,101093.41
2022-07-29T08:39:57.978Z,101089.16
2022-07-29T08:46:50.783Z,101083.29
2022-07-29T08:49:59.851Z,101082.29
2022-07-29T08:53:10.300Z,101083.30
2022-07-29T08:56:17.010Z,101085.88
2022-07-29T08:59:23.322Z,101084.34
2022-07-29T09:02:40.047Z,101083.73
2022-07-29T09:05:50.885Z,101086.28
2022-07-29T09:08:59.796Z,101083.59
2022-07-29T09:12:07.231Z,101090.41
2022-07-29T09:15:13.524Z,101083.19
2022-07-29T09:18:31.027Z,101075.69
2022-07-29T09:21:51.007Z,101073.91
2022-07-29T09:25:03.224Z,101077.17
2022-07-29T09:28:13.826Z,101072.59
2022-07-29T09:31:21.431Z,101073.86
2022-07-29T09:34:27.924Z,101078.22
2022-07-29T09:41:33.384Z,101078.86
2022-07-29T09:44:29.323Z,101074.42
2022-07-29T09:47:44.627Z,101082.64
2022-07-29T09:51:02.665Z,101082.16
2022-07-29T09:54:14.066Z,101083.34
2022-07-29T09:57:27.325Z,101085.86
2022-07-29T10:00:35.861Z,101075.92
2022-07-29T10:03:45.379Z,101075.64
2022-07-29T10:07:20.623Z,101081.52
2022-07-29T10:10:44.020Z,101085.31
2022-07-29T10:13:49.651Z,101079.53
2022-07-29T10:16:55.610Z,101087.16
2022-07-29T10:20:06.014Z,101077.66
2022-07-29T10:23:14.143Z,101076.83
2022-07-29T10:26:22.874Z,101083.66
2022-07-29T10:29:28.820Z,101084.80
2022-07-29T10:32:55.121Z,101074.44
2022-07-29T10:36:17.003Z,101080.67
2022-07-29T10:39:49.805Z,101069.59
2022-07-29T10:42:57.341Z,101064.37
2022-07-29T10:46:15.070Z,101063.84
2022-07-29T10:49:38.092Z,101074.09
2022-07-29T10:53:09.059Z,101072.53
2022-07-29T10:56:19.817Z,101063.20
2022-07-29T10:59:39.067Z,101065.28
2022-07-29T11:02:57.834Z,101064.16
2022-07-29T11:06:11.052Z,101060.56
2022-07-29T11:09:37.473Z,101062.19
2022-07-29T11:12:59.421Z,101067.08
2022-07-29T11:16:16.183Z,101058.16
2022-07-29T11:19:36.964Z,101058.70
2022-07-29T11:22:50.233Z,101059.20
2022-07-29T11:25:58.832Z,101060.23
2022-07-29T11:29:40.008Z,101055.36
2022-07-29T11:33:01.998Z,101047.87
2022-07-29T11:36:32.032Z,101054.89
2022-07-29T11:39:51.876Z,101047.25
2022-07-29T11:46:27.523Z,101051.32
2022-07-29T11:49:44.509Z,101053.27
2022-07-29T11:53:00.962Z,101042.39
2022-07-29T11:56:17.072Z,101042.18
2022-07-29T11:59:22.406Z,101041.44
2022-07-29T12:02:37.461Z,101037.88
2022-07-29T12:05:57.441Z,101044.95
2022-07-29T12:09:05.800Z,101032.62
2022-07-29T12:12:16.206Z,101034.89
2022-07-29T12:15:46.311Z,101034.67
2022-07-29T12:18:42.180Z,101033.77
2022-07-29T12:22:08.328Z,101027.23
2022-07-29T12:25:38.262Z,101036.45
2022-07-29T12:28:32.611Z,101028.52
2022-07-29T12:31:48.422Z,101033.87
2022-07-29T12:34:55.464Z,101024.95
2022-07-29T12:38:01.929Z,101022.73
2022-07-29T12:41:06.497Z,101015.77
2022-07-29T12:44:12.978Z,101019.44
2022-07-29T12:47:22.572Z,101017.80
2022-07-29T12:50:36.128Z,101019.77
2022-07-29T12:53:45.296Z,101014.45
2022-07-29T12:57:05.337Z,101015.63
2022-07-29T13:00:22.122Z,101014.55
2022-07-29T13:03:28.976Z,101013.97
2022-07-29T13:07:00.846Z,101023.87
2022-07-29T13:10:10.150Z,101018.17
2022-07-29T13:13:28.192Z,101017.27
2022-07-29T13:16:33.519Z,101012.73
2022-07-29T13:19:53.310Z,101015.77
2022-07-29T13:23:01.964Z,101014.89
2022-07-29T13:26:13.022Z,101007.83
2022-07-29T13:29:20.133Z,101003.10
2022-07-29T13:32:36.354Z,101008.20
2022-07-29T13:35:43.191Z,101005.97
2022-07-29T13:38:50.493Z,101013.86
2022-07-29T13:41:58.951Z,101002.94
2022-07-29T13:45:10.510Z,101009.70
2022-07-29T13:48:20.752Z,101014.77
2022-07-29T13:51:28.161Z,101018.95
2022-07-29T13:54:38.797Z,101011.64
2022-07-29T13:57:43.793Z,101019.76
2022-07-29T14:00:49.984Z,101020.61
2022-07-29T14:03:56.614Z,101019.66
2022-07-29T14:07:05.691Z,101020.15
2022-07-29T14:10:18.467Z,101017.38
2022-07-29T14:13:26.440Z,101012.63
2022-07-29T14:16:32.470Z,101017.71
2022-07-29T14:19:43.014Z,101006.23
2022-07-29T14:22:54.682Z,101012.45
2022-07-29T14:26:03.827Z,101007.97
2022-07-29T14:29:13.136Z,100997.27
2022-07-29T14:32:23.344Z,101001.44
2022-07-29T14:35:31.327Z,100993.28
2022-07-29T14:38:38.914Z,100991.91
2022-07-29T14:41:47.170Z,100989.74
2022-07-29T14:44:58.368Z,100978.81
2022-07-29T14:48:14.118Z,100977.13
2022-07-29T14:51:23.879Z,100983.69
2022-07-29T14:54:35.812Z,100991.85
2022-07-29T14:57:42.287Z,100980.29
2022-07-29T15:00:49.829Z,100981.62
2022-07-29T15:04:01.221Z,100975.09
2022-07-29T15:07:07.190Z,100978.17
2022-07-29T15:10:17.471Z,100981.27
2022-07-29T15:13:24.024Z,100968.34
2022-07-29T15:16:32.321Z,100970.38
2022-07-29T15:19:37.972Z,100976.34
2022-07-29T15:22:45.982Z,100971.03
2022-07-29T15:25:53.150Z,100969.63
2022-07-29T15:29:05.247Z,100979.20
2022-07-29T15:32:17.647Z,100966.81
2022-07-29T15:35:30.018Z,100966.70
2022-07-29T15:38:41.868Z,100963.84
2022-07-29T15:41:47.694Z,100959.98
2022-07-29T15:44:54.120Z,100964.70
2022-07-29T15:48:02.731Z,100973.05
2022-07-29T15:51:11.158Z,100974.73
2022-07-29T15:54:18.282Z,100969.52
2022-07-29T15:57:31.673Z,100964.16
2022-07-29T16:00:37.856Z,100968.02
2022-07-29T16:03:46.328Z,100963.13
2022-07-29T16:06:59.582Z,100969.55
2022-07-29T16:10:07.194Z,100963.84
2022-07-29T16:13:17.872Z,100967.99
2022-07-29T16:16:25.742Z,100965.59
2022-07-29T16:19:37.586Z,100964.06
2022-07-29T16:22:49.437Z,100970.27
2022-07-29T16:26:00.774Z,100958.55
2022-07-29T16:29:08.427Z,100965.24
2022-07-29T16:32:15.822Z,100965.84
2022-07-29T16:35:25.352Z,100967.55
2022-07-29T16:38:32.457Z,100966.20
2022-07-29T16:41:38.651Z,100967.89
2022-07-29T16:44:46.432Z,100973.29
2022-07-29T16:47:57.204Z,100971.12
2022-07-29T16:51:01.792Z,100971.53
2022-07-29T16:54:11.140Z,100963.70
2022-07-29T16:57:19.139Z,100966.87
2022-07-29T17:00:28.445Z,100965.56
2022-07-29T17:03:34.644Z,100981.12
2022-07-29T17:06:43.014Z,100978.36
2022-07-29T17:09:50.535Z,100974.20
2022-07-29T17:12:56.026Z,100973.98
2022-07-29T17:16:01.908Z,100969.84
2022-07-29T17:19:12.187Z,100974.13
2022-07-29T17:22:21.123Z,100971.67
2022-07-29T17:25:27.992Z,100979.00
2022-07-29T17:28:33.084Z,100983.23
2022-07-29T17:31:39.505Z,100981.80
2022-07-29T17:34:47.225Z,100982.06
2022-07-29T17:37:54.373Z,100990.68
2022-07-29T17:41:01.903Z,100992.33
2022-07-29T17:44:09.534Z,100990.94
2022-07-29T17:47:15.837Z,100992.87
2022-07-29T17:50:23.920Z,101001.86
2022-07-29T17:53:30.783Z,101002.70
2022-07-29T17:56:38.295Z,101009.05
2022-07-29T17:59:44.132Z,101013.11
2022-07-29T18:02:50.654Z,101007.44
2022-07-29T18:06:03.406Z,101012.70
2022-07-29T18:09:10.395Z,101016.06
2022-07-29T18:12:17.474Z,101018.27
2022-07-29T18:15:25.074Z,101022.16
2022-07-29T18:18:34.002Z,101018.30
2022-07-29T18:21:51.234Z,101033.36
2022-07-29T18:24:51.553Z,101028.58
2022-07-29T18:28:00.539Z,101038.75
2022-07-29T18:31:04.455Z,101038.99
2022-07-29T18:34:10.159Z,101039.43
2022-07-29T18:37:17.114Z,101040.13
2022-07-29T18:40:24.180Z,101043.67
2022-07-29T18:43:33.414Z,101046.68
2022-07-29T18:46:39.470Z,101046.63
2022-07-29T18:49:48.033Z,101040.75
2022-07-29T18:52:56.239Z,101046.80
2022-07-29T18:56:04.288Z,101040.01
2022-07-29T18:59:13.990Z,101049.19
2022-07-29T19:02:19.260Z,101043.03
2022-07-29T19:05:26.442Z,101045.11
2022-07-29T19:08:32.439Z,101044.70
2022-07-29T19:11:37.923Z,101037.89
2022-07-29T19:14:44.741Z,101034.47
2022-07-29T19:17:53.444Z,101029.89
2022-07-29T19:21:00.720Z,101032.81
2022-07-29T19:24:08.492Z,101034.02
2022-07-29T19:27:14.065Z,101044.43
2022-07-29T19:30:21.805Z,101036.13
2022-07-29T19:33:27.842Z,101039.80
2022-07-29T19:36:33.825Z,101037.84
2022-07-29T19:39:41.144Z,101040.58
2022-07-29T19:42:48.235Z,101043.37
2022-07-29T19:45:54.598Z,101042.02
2022-07-29T19:49:01.961Z,101046.43
2022-07-29T19:52:07.607Z,101040.81
2022-07-29T19:55:14.516Z,101045.73
2022-07-29T19:58:22.411Z,101048.75
2022-07-29T20:01:31.736Z,101044.85
2022-07-29T20:04:40.195Z,101040.92
2022-07-29T20:07:45.858Z,101044.75
2022-07-29T20:10:51.353Z,101041.13
2022-07-29T20:13:57.342Z,101038.14
2022-07-29T20:17:03.114Z,101030.89
2022-07-29T20:20:12.601Z,101023.09
2022-07-29T20:23:19.164Z,101030.59
2022-07-29T20:26:26.841Z,101033.67
2022-07-29T20:29:34.109Z,101031.77
2022-07-29T20:32:40.412Z,101030.16
2022-07-29T20:35:46.462Z,101029.84
2022-07-29T20:38:55.217Z,101030.14
2022-07-29T20:42:04.520Z,101027.80
2022-07-29T20:45:10.806Z,101030.91
2022-07-29T20:48:21.567Z,101031.20
2022-07-29T20:51:28.145Z,101025.00
2022-07-29T20:54:36.085Z,101029.87
2022-07-29T20:57:41.903Z,101032.11
2022-07-29T21:00:47.969Z,101033.05
2022-07-29T21:03:54.130Z,101036.77
2022-07-29T21:07:01.014Z,101033.34
2022-07-29T21:10:07.609Z,101032.80
2022-07-29T21:13:14.487Z,101031.39
2022-07-29T21:16:26.432Z,101035.66
2022-07-29T21:19:33.254Z,101036.91
2022-07-29T21:22:39.215Z,101034.36
2022-07-29T21:25:45.680Z,101034.98
2022-07-29T21:28:53.274Z,101047.22
2022-07-29T21:32:00.665Z,101042.50
2022-07-29T21:35:18.312Z,101039.84
2022-07-29T21:38:15.972Z,101046.73
2022-07-29T21:41:23.162Z,101053.00
2022-07-29T21:44:29.828Z,101050.02
2022-07-29T21:47:29.433Z,101048.95
2022-07-29T21:50:35.816Z,101052.38
2022-07-29T21:53:42.807Z,101055.15
2022-07-29T21:56:51.088Z,101051.20
2022-07-29T22:00:02.465Z,101050.55
2022-07-29T22:03:09.987Z,101056.50
2022-07-29T22:06:17.833Z,101046.05
2022-07-29T22:09:25.704Z,101051.68
2022-07-29T22:12:31.034Z,101051.75
2022-07-29T22:15:38.222Z,101052.05
2022-07-29T22:18:44.799Z,101061.81
2022-07-29T22:21:53.926Z,101056.38
2022-07-29T22:24:59.989Z,101053.84
2022-07-29T22:28:06.975Z,101048.72
2022-07-29T22:31:13.881Z,101049.78
2022-07-29T22:34:21.862Z,101038.92
2022-07-29T22:37:27.781Z,101037.39
2022-07-29T22:40:35.116Z,101040.16
2022-07-29T22:43:40.447Z,101038.47
2022-07-29T22:46:48.769Z,101040.72
2022-07-29T22:49:57.487Z,101038.47
2022-07-29T22:53:04.883Z,101039.84
2022-07-29T22:56:12.673Z,101046.97
2022-07-29T22:59:19.043Z,101047.38
2022-07-29T23:02:25.707Z,101042.98
2022-07-29T23:05:32.789Z,101047.39
2022-07-29T23:08:39.381Z,101041.50
2022-07-29T23:11:47.291Z,101037.95
2022-07-29T23:14:53.796Z,101043.95
2022-07-29T23:18:01.663Z,101044.77
2022-07-29T23:21:09.050Z,101044.85
2022-07-29T23:24:15.331Z,101040.77
2022-07-29T23:27:22.515Z,101046.38
2022-07-29T23:30:30.466Z,101031.98
2022-07-29T23:33:35.456Z,101041.86
2022-07-29T23:36:42.507Z,101039.30
2022-07-29T23:39:48.402Z,101037.25
2022-07-29T23:42:54.750Z,101039.34
2022-07-29T23:46:02.640Z,101037.30
2022-07-29T23:49:09.166Z,101036.31
2022-07-29T23:52:16.835Z,101031.91
2022-07-29T23:55:37.780Z,101042.18
2022-07-29T23:58:38.067Z,101033.11
